Time;durP1;ratioP1;P1;durP2;ratioP2;P2;SDS_P1;SDS_P2;PMS_P1;PMS_P2;Temp;Humidity;BMP_temperature;BMP_pressure;BME280_temperature;BME280_humidity;BME280_pressure;Samples;Min_cycle;Max_cycle;Signal;HPM_P1;HPM_P2
2022/10/03 00:00:35;;;;;;;6.20;4.00;;;;;;;5.95;98.53;97069.47;109623;1253;68644;-76
2022/10/03 00:04:11;;;;;;;5.90;4.40;;;;;;;5.97;100.00;97065.26;110417;1244;59796;-73
2022/10/03 00:07:00;;;;;;;4.80;3.80;;;;;;;5.96;100.00;97064.95;110288;1244;59776;-76
2022/10/03 00:09:46;;;;;;;5.60;4.30;;;;;;;5.94;100.00;97061.56;110543;1243;70667;-75
2022/10/03 00:12:57;;;;;;;7.50;4.80;;;;;;;5.95;100.00;97044.78;110550;1244;68529;-76
2022/10/03 00:15:36;;;;;;;8.70;5.60;;;;;;;5.92;100.00;97045.25;110442;1244;69548;-75
2022/10/03 00:18:33;;;;;;;4.80;3.50;;;;;;;5.90;100.00;97035.32;110886;1244;59694;-77
2022/10/03 00:21:13;;;;;;;6.00;4.60;;;;;;;5.88;100.00;97028.35;110554;1244;59684;-77
2022/10/03 00:24:02;;;;;;;5.70;4.60;;;;;;;5.87;100.00;97025.30;110467;1244;71399;-75
2022/10/03 00:26:45;;;;;;;7.50;5.20;;;;;;;5.87;100.00;97027.36;110387;1247;68999;-76
2022/10/03 00:29:35;;;;;;;9.00;5.80;;;;;;;5.87;100.00;97022.36;110272;1245;68694;-75
2022/10/03 00:32:21;;;;;;;9.50;5.70;;;;;;;5.89;100.00;97020.17;110428;1242;59743;-75
2022/10/03 00:35:19;;;;;;;7.90;5.50;;;;;;;5.90;100.00;97023.94;110393;1244;59617;-75
2022/10/03 00:38:27;;;;;;;7.80;6.10;;;;;;;5.91;100.00;97018.83;110429;1244;70646;-75
2022/10/03 00:41:21;;;;;;;5.00;4.20;;;;;;;5.94;100.00;97007.42;109949;1244;68721;-75
2022/10/03 00:44:28;;;;;;;6.40;5.10;;;;;;;5.97;100.00;97014.39;110451;1244;68654;-76
2022/10/03 00:47:35;;;;;;;8.40;5.40;;;;;;;5.98;100.00;97019.15;110985;1244;59741;-74
2022/10/03 00:50:16;;;;;;;8.10;5.10;;;;;;;5.95;100.00;97027.27;110458;1242;59706;-77
2022/10/03 00:53:20;;;;;;;9.70;6.20;;;;;;;5.92;100.00;97034.03;110455;1244;71519;-75
2022/10/03 00:55:54;;;;;;;6.40;5.30;;;;;;;5.90;100.00;97031.89;110486;1244;69371;-76
2022/10/03 00:58:28;;;;;;;8.20;5.60;;;;;;;5.87;100.00;97031.34;110276;1246;68503;-75
2022/10/03 01:01:26;;;;;;;7.60;5.30;;;;;;;5.89;100.00;97030.73;110134;1244;59752;-74
2022/10/03 01:04:09;;;;;;;7.50;5.50;;;;;;;5.89;100.00;97026.95;110457;1246;59685;-76
2022/10/03 01:07:04;;;;;;;7.60;5.40;;;;;;;5.88;100.00;97018.67;110553;1244;70700;-76
2022/10/03 01:09:33;;;;;;;5.80;4.20;;;;;;;5.87;100.00;97015.81;110224;1244;68938;-76
2022/10/03 01:12:03;;;;;;;6.90;5.30;;;;;;;5.86;100.00;97014.64;110359;1244;69464;-76
2022/10/03 01:14:50;;;;;;;7.20;5.50;;;;;;;5.88;100.00;97017.46;110421;1244;59792;-76
2022/10/03 01:17:24;;;;;;;7.10;5.30;;;;;;;5.89;100.00;97022.27;110415;1244;59631;-78
2022/10/03 01:20:13;;;;;;;5.90;4.70;;;;;;;5.89;100.00;97017.91;110443;1244;71535;-77
2022/10/03 01:23:10;;;;;;;8.10;5.50;;;;;;;5.90;100.00;97016.50;110625;1244;67900;-76
2022/10/03 01:26:04;;;;;;;7.30;5.70;;;;;;;5.89;100.00;97011.69;110562;1243;69514;-75
2022/10/03 01:31:45;;;;;;;8.10;5.70;;;;;;;5.86;100.00;97000.46;110598;1244;59677;-77
2022/10/03 01:34:21;;;;;;;9.90;5.20;;;;;;;5.85;100.00;96996.91;110621;1244;70743;-75
2022/10/03 01:37:17;;;;;;;5.30;4.00;;;;;;;5.84;100.00;96990.05;110559;1244;68563;-77
2022/10/03 01:40:07;;;;;;;5.50;4.50;;;;;;;5.83;100.00;96986.64;110330;1244;68585;-77
2022/10/03 01:42:42;;;;;;;6.90;4.50;;;;;;;5.83;100.00;96985.94;110363;1244;59738;-77
2022/10/03 01:45:25;;;;;;;7.70;5.10;;;;;;;5.82;100.00;96987.23;110371;1244;59777;-76
2022/10/03 01:48:21;;;;;;;8.60;6.10;;;;;;;5.81;100.00;96985.17;110425;1245;70685;-77
2022/10/03 01:51:05;;;;;;;6.60;4.90;;;;;;;5.83;100.00;96977.46;110392;1246;69310;-76
2022/10/03 01:53:55;;;;;;;6.90;4.50;;;;;;;5.85;100.00;96984.63;110964;1245;68854;-75
2022/10/03 01:56:43;;;;;;;6.60;4.80;;;;;;;5.86;100.00;96989.89;110343;1246;59700;-77
2022/10/03 01:59:45;;;;;;;5.50;4.50;;;;;;;5.91;100.00;96994.80;110496;1244;59678;-75
2022/10/03 02:02:45;;;;;;;7.40;4.90;;;;;;;5.97;100.00;96995.70;110381;1245;70652;-74
2022/10/03 02:05:17;;;;;;;6.20;4.60;;;;;;;6.01;100.00;96995.58;110311;1246;67966;-76
2022/10/03 02:07:54;;;;;;;8.80;5.80;;;;;;;6.07;100.00;96994.70;110251;1245;69923;-76
2022/10/03 02:10:32;;;;;;;6.90;5.60;;;;;;;6.08;100.00;96992.39;110379;1246;59694;-78
2022/10/03 02:13:08;;;;;;;8.00;5.30;;;;;;;6.11;100.00;96990.50;110435;1244;59659;-78
2022/10/03 02:16:10;;;;;;;7.50;4.80;;;;;;;6.11;100.00;96979.77;110523;1243;71491;-74
2022/10/03 02:18:50;;;;;;;5.50;4.40;;;;;;;6.14;100.00;96977.00;110426;1244;68590;-75
2022/10/03 02:21:26;;;;;;;5.50;4.10;;;;;;;6.16;100.00;96973.63;110220;1247;68632;-76
2022/10/03 02:24:08;;;;;;;4.60;3.20;;;;;;;6.15;100.00;96977.10;110325;1244;59667;-77
2022/10/03 02:26:36;;;;;;;5.30;4.20;;;;;;;6.16;100.00;96970.46;110550;1244;59681;-75
2022/10/03 02:29:37;;;;;;;6.20;4.10;;;;;;;6.19;100.00;96967.16;110332;1245;71452;-74
2022/10/03 02:32:31;;;;;;;5.60;4.10;;;;;;;6.20;100.00;96967.27;109954;1244;68655;-75
2022/10/03 02:35:24;;;;;;;5.80;4.00;;;;;;;6.24;100.00;96964.10;110402;1244;69297;-77
2022/10/03 02:38:17;;;;;;;4.80;4.20;;;;;;;6.29;100.00;96971.56;110292;1244;59689;-77
2022/10/03 02:41:12;;;;;;;5.60;4.20;;;;;;;6.34;100.00;96967.09;110369;1244;59695;-75
2022/10/03 02:43:48;;;;;;;7.70;4.50;;;;;;;6.39;100.00;96958.61;110348;1244;71586;-75
2022/10/03 02:46:36;;;;;;;6.20;4.40;;;;;;;6.47;100.00;96961.62;110528;1246;69366;-77
2022/10/03 02:49:26;;;;;;;5.60;4.10;;;;;;;6.51;100.00;96959.25;110548;1245;68762;-76
2022/10/03 02:52:26;;;;;;;4.70;4.20;;;;;;;6.57;100.00;96958.73;110415;1245;59762;-76
2022/10/03 02:55:16;;;;;;;5.50;4.30;;;;;;;6.61;100.00;96955.52;110849;1244;60042;-76
2022/10/03 02:58:10;;;;;;;8.10;4.90;;;;;;;6.62;100.00;96951.26;110441;1244;71500;-75
2022/10/03 03:01:24;;;;;;;5.30;3.90;;;;;;;6.62;100.00;96959.45;110654;1244;69307;-77
2022/10/03 03:04:36;;;;;;;5.10;4.60;;;;;;;6.61;100.00;96961.59;110377;1244;69399;-77
2022/10/03 03:07:29;;;;;;;5.20;3.60;;;;;;;6.62;100.00;96959.58;110543;1245;59794;-75
2022/10/03 03:10:20;;;;;;;5.20;4.00;;;;;;;6.66;100.00;96961.29;110368;1245;59673;-76
2022/10/03 03:13:14;;;;;;;4.00;3.40;;;;;;;6.69;100.00;96952.41;110306;1244;71245;-75
2022/10/03 03:16:09;;;;;;;4.60;3.70;;;;;;;6.72;100.00;96948.10;110432;1242;68554;-75
2022/10/03 03:18:49;;;;;;;6.60;4.00;;;;;;;6.73;100.00;96939.73;109901;1245;69528;-75
2022/10/03 03:21:32;;;;;;;5.30;4.20;;;;;;;6.73;100.00;96928.74;110371;1244;59741;-75
2022/10/03 03:24:12;;;;;;;4.90;4.10;;;;;;;6.75;100.00;96925.66;110396;1244;59665;-74
2022/10/03 03:26:49;;;;;;;6.10;5.10;;;;;;;6.78;100.00;96927.04;110417;1244;71514;-75
2022/10/03 03:29:38;;;;;;;8.80;5.00;;;;;;;6.80;100.00;96926.03;110247;1246;68641;-74
2022/10/03 03:32:18;;;;;;;6.90;4.80;;;;;;;6.80;100.00;96923.27;110514;1244;68631;-76
2022/10/03 03:35:04;;;;;;;;;;;;;;;6.80;100.00;96913.94;110359;1244;59670;-75
2022/10/03 03:37:46;;;;;;;6.60;4.30;;;;;;;6.83;100.00;96911.48;110347;1244;59809;-76
2022/10/03 03:40:37;;;;;;;9.50;4.50;;;;;;;6.86;100.00;96902.98;110344;1245;71387;-75
2022/10/03 03:43:44;;;;;;;6.50;4.70;;;;;;;6.89;100.00;96899.95;110293;1244;67632;-73
2022/10/03 03:46:22;;;;;;;4.80;3.80;;;;;;;6.96;100.00;96895.58;110274;1245;68618;-76
2022/10/03 03:49:15;;;;;;;6.80;4.50;;;;;;;7.00;100.00;96900.12;110286;1244;59760;-75
2022/10/03 03:52:04;;;;;;;7.00;5.00;;;;;;;7.05;100.00;96891.62;110395;1245;59700;-75
2022/10/03 03:54:44;;;;;;;9.70;6.30;;;;;;;7.09;100.00;96884.95;110362;1246;71458;-76
2022/10/03 03:57:33;;;;;;;8.90;6.10;;;;;;;7.13;100.00;96880.70;110388;1244;69263;-76
2022/10/03 04:00:15;;;;;;;9.00;5.70;;;;;;;7.18;100.00;96882.16;110289;1245;67634;-76
2022/10/03 04:03:43;;;;;;;8.20;6.10;;;;;;;7.23;100.00;96888.05;110279;1244;59747;-77
2022/10/03 04:06:38;;;;;;;5.60;4.70;;;;;;;7.27;100.00;96893.88;110239;1250;59721;-75
2022/10/03 04:09:42;;;;;;;4.60;3.60;;;;;;;7.31;100.00;96907.45;110450;1245;71509;-75
2022/10/03 04:12:35;;;;;;;8.00;3.60;;;;;;;7.35;100.00;96913.52;110705;1245;68578;-76
2022/10/03 04:15:17;;;;;;;3.90;3.20;;;;;;;7.41;100.00;96919.02;110632;1244;69407;-74
2022/10/03 04:21:09;;;;;;;11.30;8.00;;;;;;;7.53;100.00;96915.10;109911;1245;59701;-75
2022/10/03 04:24:07;;;;;;;10.10;7.30;;;;;;;7.56;100.00;96932.44;110482;1244;70045;-76
2022/10/03 04:27:08;;;;;;;8.40;6.80;;;;;;;7.58;100.00;96948.90;110585;1244;68569;-75
2022/10/03 04:29:55;;;;;;;10.60;7.90;;;;;;;7.59;100.00;96947.95;110423;1244;69371;-73
2022/10/03 04:32:23;;;;;;;8.70;6.10;;;;;;;7.58;100.00;96934.38;110482;1245;59737;-75
2022/10/03 04:35:09;;;;;;;10.00;7.90;;;;;;;7.58;100.00;96924.65;110341;1245;59679;-75
2022/10/03 04:38:14;;;;;;;9.50;7.50;;;;;;;7.58;100.00;96922.73;110460;1243;71533;-76
2022/10/03 04:41:19;;;;;;;7.80;6.40;;;;;;;7.61;100.00;96925.95;110417;1244;68652;-76
2022/10/03 04:44:10;;;;;;;149.20;62.50;;;;;;;7.67;100.00;96924.73;110282;1246;68687;-74
2022/10/03 04:47:03;;;;;;;44.80;24.90;;;;;;;7.77;100.00;96920.20;110729;1244;59754;-74
2022/10/03 04:49:51;;;;;;;12.00;9.10;;;;;;;7.79;100.00;96922.84;110380;1244;59683;-73
2022/10/03 04:52:38;;;;;;;10.00;7.10;;;;;;;7.80;100.00;96912.70;110576;1245;71966;-76
2022/10/03 04:55:22;;;;;;;10.10;7.00;;;;;;;7.81;100.00;96912.98;110410;1245;68671;-75
2022/10/03 04:58:02;;;;;;;9.20;6.60;;;;;;;7.84;100.00;96908.30;110377;1245;68829;-74
2022/10/03 05:01:05;;;;;;;10.30;6.70;;;;;;;7.86;100.00;96905.37;110377;1247;59687;-77
2022/10/03 05:03:43;;;;;;;10.30;5.80;;;;;;;7.89;100.00;96909.17;110404;1245;59753;-75
2022/10/03 05:06:28;;;;;;;8.30;5.70;;;;;;;7.92;100.00;96905.83;110433;1244;70969;-74
2022/10/03 05:09:20;;;;;;;8.50;5.40;;;;;;;7.96;100.00;96903.79;110298;1244;69337;-76
2022/10/03 05:12:31;;;;;;;9.00;5.30;;;;;;;8.01;100.00;96900.89;110912;1244;69636;-75
2022/10/03 05:15:23;;;;;;;6.70;5.20;;;;;;;8.09;100.00;96894.73;110630;1244;59604;-73
2022/10/03 05:18:17;;;;;;;6.50;5.20;;;;;;;8.13;100.00;96890.41;110344;1245;59721;-77
2022/10/03 05:21:20;;;;;;;6.00;4.10;;;;;;;8.22;100.00;96897.27;110637;1244;71697;-76
2022/10/03 05:24:15;;;;;;;5.20;4.10;;;;;;;8.35;100.00;96907.13;110267;1245;69415;-76
2022/10/03 05:27:25;;;;;;;5.40;4.40;;;;;;;8.45;100.00;96917.73;110334;1245;69267;-74
2022/10/03 05:29:58;;;;;;;6.30;4.80;;;;;;;8.45;100.00;96912.17;110351;1246;59725;-75
2022/10/03 05:33:02;;;;;;;9.40;6.20;;;;;;;8.41;100.00;96906.51;110399;1245;59660;-75
2022/10/03 05:35:45;;;;;;;8.40;5.70;;;;;;;8.38;100.00;96907.08;110594;1244;70664;-75
2022/10/03 05:38:14;;;;;;;9.30;5.50;;;;;;;8.26;100.00;96924.05;110094;1245;382214;-75
2022/10/03 05:41:15;;;;;;;8.80;6.30;;;;;;;8.16;100.00;96934.29;110446;1244;69059;-75
2022/10/03 05:43:57;;;;;;;6.70;4.90;;;;;;;8.16;100.00;96945.95;110472;1244;59776;-76
2022/10/03 05:46:47;;;;;;;6.50;4.80;;;;;;;8.15;100.00;96952.10;110308;1245;59685;-76
2022/10/03 05:49:22;;;;;;;8.10;6.00;;;;;;;8.10;100.00;96938.37;110404;1244;70785;-75
2022/10/03 05:52:23;;;;;;;10.00;7.40;;;;;;;8.14;100.00;96927.17;110404;1244;69748;-75
2022/10/03 05:54:57;;;;;;;9.70;5.60;;;;;;;8.13;100.00;96924.77;110434;1244;69410;-77
2022/10/03 05:57:42;;;;;;;9.00;5.60;;;;;;;8.12;100.00;96930.23;110412;1244;59757;-75
2022/10/03 06:00:22;;;;;;;7.00;4.40;;;;;;;8.16;100.00;96932.91;110281;1245;59688;-75
2022/10/03 06:03:09;;;;;;;6.80;5.40;;;;;;;8.21;100.00;96937.44;110452;1245;71471;-75
2022/10/03 06:06:22;;;;;;;6.60;4.50;;;;;;;8.28;100.00;96938.52;110511;1244;69326;-75
2022/10/03 06:09:06;;;;;;;7.10;4.50;;;;;;;8.34;100.00;96942.73;110398;1245;68896;-75
2022/10/03 06:11:54;;;;;;;5.90;4.40;;;;;;;8.40;100.00;96943.58;110342;1245;59939;-75
2022/10/03 06:14:34;;;;;;;9.50;6.80;;;;;;;8.45;100.00;96945.35;110475;1244;59705;-77
2022/10/03 06:17:27;;;;;;;7.80;5.70;;;;;;;8.46;100.00;96947.83;110572;1244;70959;-76
2022/10/03 06:20:38;;;;;;;9.80;6.90;;;;;;;8.47;100.00;96950.55;110757;1245;69348;-76
2022/10/03 06:23:43;;;;;;;8.20;5.20;;;;;;;8.52;100.00;96953.30;110471;1245;69309;-76
2022/10/03 06:26:35;;;;;;;7.70;6.10;;;;;;;8.58;100.00;96953.75;110356;1245;59697;-77
2022/10/03 06:29:27;;;;;;;7.00;5.40;;;;;;;8.65;100.00;96960.34;110391;1244;60116;-75
2022/10/03 06:32:15;;;;;;;8.70;5.50;;;;;;;8.75;100.00;96962.46;110427;1244;71555;-76
2022/10/03 06:35:03;;;;;;;7.10;5.20;;;;;;;8.91;100.00;96964.71;110362;1244;69336;-75
2022/10/03 06:38:21;;;;;;;9.70;5.90;;;;;;;9.15;100.00;96962.13;110437;1246;69367;-76
2022/10/03 06:40:48;;;;;;;7.40;4.90;;;;;;;9.26;100.00;96965.45;109728;1247;59748;-78
2022/10/03 06:43:44;;;;;;;6.60;5.00;;;;;;;9.40;100.00;96966.68;110440;1247;59680;-77
2022/10/03 06:46:40;;;;;;;6.00;4.80;;;;;;;9.60;100.00;96972.46;110407;1246;71497;-76
2022/10/03 06:49:31;;;;;;;6.10;4.40;;;;;;;9.89;100.00;96978.59;110466;1243;69383;-77
2022/10/03 06:52:16;;;;;;;5.00;3.40;;;;;;;10.08;99.02;96980.77;110423;1245;68288;-77
2022/10/03 06:55:32;;;;;;;4.80;3.20;;;;;;;10.12;97.61;96983.28;110462;1245;59666;-76
2022/10/03 06:58:37;;;;;;;4.80;3.60;;;;;;;10.25;97.54;96978.44;110479;1246;59747;-76
2022/10/03 07:01:12;;;;;;;7.50;4.20;;;;;;;10.31;97.33;96987.05;110534;1245;71504;-75
2022/10/03 07:03:52;;;;;;;5.20;3.90;;;;;;;10.32;96.97;96991.16;110596;1244;68728;-77
2022/10/03 07:06:50;;;;;;;5.00;4.40;;;;;;;10.27;96.55;96991.21;110510;1244;68756;-77
2022/10/03 07:10:00;;;;;;;5.00;3.40;;;;;;;10.21;96.44;96991.63;110453;1244;59685;-77
2022/10/03 07:12:58;;;;;;;5.10;4.00;;;;;;;10.30;96.70;96992.52;110195;1244;59743;-75
2022/10/03 07:15:57;;;;;;;4.30;3.30;;;;;;;10.77;96.82;96998.02;110352;1247;71523;-76
2022/10/03 07:19:34;;;;;;;5.50;2.80;;;;;;;11.63;93.19;96993.83;110475;1245;68353;-76
2022/10/03 07:22:46;;;;;;;3.90;3.20;;;;;;;12.71;89.10;96992.70;110847;1244;70025;-77
2022/10/03 07:25:34;;;;;;;3.80;2.50;;;;;;;13.25;83.62;96991.23;110616;1246;59706;-77
2022/10/03 07:28:23;;;;;;;3.50;2.10;;;;;;;13.84;80.10;96986.95;110572;1244;59671;-76
2022/10/03 07:31:48;;;;;;;2.70;2.30;;;;;;;14.09;78.14;96990.25;110339;1244;71591;-75
2022/10/03 07:34:24;;;;;;;2.70;2.20;;;;;;;15.10;77.17;97000.58;109739;1250;69279;-79
2022/10/03 07:40:29;;;;;;;2.70;1.70;;;;;;;16.49;68.35;96985.94;110385;1244;59739;-78
2022/10/03 07:43:02;;;;;;;2.20;1.80;;;;;;;16.45;67.53;96994.73;110378;1244;59675;-77
2022/10/03 07:45:39;;;;;;;3.40;2.40;;;;;;;16.65;69.06;96992.46;110509;1244;70721;-75
2022/10/03 07:48:44;;;;;;;3.20;1.70;;;;;;;16.49;67.07;96991.87;110499;1246;70072;-75
2022/10/03 07:51:30;;;;;;;2.20;1.40;;;;;;;16.27;65.39;96990.09;110068;1245;69469;-78
2022/10/03 07:54:32;;;;;;;2.10;1.40;;;;;;;16.70;65.50;96989.92;110514;1243;59746;-78
2022/10/03 07:57:03;;;;;;;3.10;1.60;;;;;;;17.55;65.35;96994.80;110606;1244;59753;-78
2022/10/03 08:00:12;;;;;;;3.70;1.60;;;;;;;17.81;61.91;96996.20;110564;1244;69686;-76
2022/10/03 08:03:15;;;;;;;2.20;1.40;;;;;;;17.59;60.62;96998.27;110545;1244;68969;-78
2022/10/03 08:06:01;;;;;;;3.40;1.30;;;;;;;17.17;61.93;96996.59;110484;1245;67590;-76
2022/10/03 08:08:49;;;;;;;2.00;1.30;;;;;;;16.98;60.84;96994.67;110431;1245;59751;-75
2022/10/03 08:11:48;;;;;;;2.10;1.50;;;;;;;16.97;62.32;96992.55;110149;1247;59737;-76
2022/10/03 08:14:20;;;;;;;2.20;1.60;;;;;;;17.34;61.16;96994.10;110281;1245;70453;-77
2022/10/03 08:16:56;;;;;;;2.20;1.50;;;;;;;17.66;58.64;96981.33;110409;1247;69686;-75
2022/10/03 08:19:57;;;;;;;2.20;1.40;;;;;;;17.92;58.72;96985.81;110391;1245;69491;-74
2022/10/03 08:22:35;;;;;;;1.80;1.30;;;;;;;18.09;56.63;96979.04;110452;1245;59749;-74
2022/10/03 08:25:25;;;;;;;1.50;1.30;;;;;;;17.84;55.14;96978.46;110213;1246;59713;-73
2022/10/03 08:27:56;;;;;;;2.10;1.20;;;;;;;17.76;53.98;96975.79;110214;1247;71505;-75
2022/10/03 08:30:51;;;;;;;2.60;1.10;;;;;;;18.31;56.67;96980.64;110678;1246;69034;-75
2022/10/03 08:33:33;;;;;;;2.50;1.50;;;;;;;18.53;54.42;96990.52;110433;1247;68509;-75
2022/10/03 08:36:15;;;;;;;1.70;1.10;;;;;;;19.11;54.45;96996.52;110401;1247;59734;-75
2022/10/03 08:39:07;;;;;;;2.30;1.10;;;;;;;18.71;50.90;96993.90;110302;1246;60139;-73
2022/10/03 08:41:52;;;;;;;1.90;1.30;;;;;;;19.16;50.74;96990.15;110386;1246;71863;-74
2022/10/03 08:44:44;;;;;;;1.00;0.70;;;;;;;19.42;50.39;96990.70;110357;1247;69550;-75
2022/10/03 08:47:24;;;;;;;1.50;1.10;;;;;;;19.58;50.14;96996.16;110338;1246;68882;-75
2022/10/03 08:49:54;;;;;;;2.30;1.10;;;;;;;19.15;48.15;96993.67;110316;1245;59724;-75
2022/10/03 08:52:42;;;;;;;1.40;1.10;;;;;;;18.39;48.40;96993.77;110189;1247;59681;-75
2022/10/03 08:55:41;;;;;;;2.40;1.30;;;;;;;17.69;51.10;96999.30;110259;1247;70857;-75
2022/10/03 08:58:44;;;;;;;1.70;1.20;;;;;;;17.67;52.73;96999.34;110225;1246;68753;-75
2022/10/03 09:01:15;;;;;;;1.40;1.10;;;;;;;18.11;52.12;96993.65;110332;1246;69452;-74
2022/10/03 09:04:15;;;;;;;1.40;1.20;;;;;;;18.75;50.23;96997.52;110345;1246;59751;-74
2022/10/03 09:06:53;;;;;;;1.40;1.00;;;;;;;19.67;48.10;96990.48;110384;1246;59688;-74
2022/10/03 09:10:11;;;;;;;2.50;1.10;;;;;;;20.54;45.83;96986.73;110352;1247;70616;-74
2022/10/03 09:12:41;;;;;;;1.40;0.90;;;;;;;20.99;43.65;96988.95;110231;1247;67754;-74
2022/10/03 09:15:46;;;;;;;2.50;0.90;;;;;;;21.14;42.53;96984.00;110308;1246;69404;-75
2022/10/03 09:18:45;;;;;;;1.80;0.90;;;;;;;21.46;41.96;96990.04;110419;1247;59745;-75
2022/10/03 09:21:21;;;;;;;2.20;1.00;;;;;;;21.40;40.36;96989.32;110422;1246;59666;-73
2022/10/03 09:24:14;;;;;;;2.20;1.00;;;;;;;20.79;41.74;96997.70;110497;1246;71925;-73
2022/10/03 09:27:01;;;;;;;1.80;1.20;;;;;;;19.72;44.05;97004.84;110310;1246;68679;-73
2022/10/03 09:29:39;;;;;;;1.80;0.80;;;;;;;19.55;44.88;97005.50;110347;1245;68683;-72
2022/10/03 09:32:44;;;;;;;1.60;0.80;;;;;;;19.56;45.81;96998.88;110061;1247;59716;-73
2022/10/03 09:35:49;;;;;;;2.40;0.80;;;;;;;21.03;43.86;97004.70;110475;1246;59686;-74
2022/10/03 09:38:52;;;;;;;1.30;0.90;;;;;;;21.24;42.99;97010.58;110465;1245;71456;-74
2022/10/03 09:41:58;;;;;;;2.00;0.90;;;;;;;20.56;42.23;97020.45;110169;1246;68450;-73
2022/10/03 09:44:31;;;;;;;1.10;0.70;;;;;;;19.96;40.16;97018.52;110155;1247;69409;-73
2022/10/03 09:47:23;;;;;;;1.50;0.80;;;;;;;19.56;40.73;97019.80;110530;1246;59736;-73
2022/10/03 09:50:18;;;;;;;1.10;0.80;;;;;;;19.10;42.20;97021.59;110178;1247;59678;-73
2022/10/03 09:53:13;;;;;;;2.20;1.40;;;;;;;18.56;43.66;97020.02;110237;1247;70724;-73
2022/10/03 09:56:14;;;;;;;2.00;0.90;;;;;;;18.69;43.96;97018.59;110229;1247;69694;-73
2022/10/03 09:58:54;;;;;;;1.60;0.80;;;;;;;19.20;42.78;97012.73;110382;1246;69061;-72
2022/10/03 10:01:58;;;;;;;1.60;0.80;;;;;;;20.00;42.53;97021.40;110302;1246;59655;-72
2022/10/03 10:04:37;;;;;;;1.50;0.70;;;;;;;21.03;40.99;97013.02;110166;1247;59756;-72
2022/10/03 10:07:48;;;;;;;1.50;0.80;;;;;;;21.53;39.93;97012.95;110205;1247;71122;-73
2022/10/03 10:10:27;;;;;;;1.70;0.60;;;;;;;22.62;37.37;97014.04;109913;1245;69369;-73
2022/10/03 10:13:19;;;;;;;1.90;0.60;;;;;;;23.05;36.54;97018.88;110213;1246;68553;-73
2022/10/03 10:15:59;;;;;;;0.70;0.50;;;;;;;22.48;35.35;97007.84;110293;1246;59748;-74
2022/10/03 10:18:46;;;;;;;2.90;0.70;;;;;;;22.53;35.98;97008.35;110471;1246;59735;-74
2022/10/03 10:21:48;;;;;;;1.60;0.70;;;;;;;22.73;34.44;97015.03;110486;1246;71571;-75
2022/10/03 10:24:47;;;;;;;0.70;0.70;;;;;;;22.70;34.49;97008.27;110369;1246;68618;-75
2022/10/03 10:27:33;;;;;;;0.70;0.50;;;;;;;23.03;35.05;97010.43;110571;1246;67809;-75
2022/10/03 10:30:12;;;;;;;1.00;0.60;;;;;;;23.31;34.15;97013.21;110525;1247;59760;-74
2022/10/03 10:33:25;;;;;;;0.90;0.50;;;;;;;22.67;34.23;97008.97;110471;1247;59703;-73
2022/10/03 10:36:23;;;;;;;0.80;0.50;;;;;;;22.21;34.80;97010.07;110247;1247;71475;-75
2022/10/03 10:39:27;;;;;;;0.50;0.40;;;;;;;22.93;35.16;97009.60;110447;1247;69466;-72
2022/10/03 10:42:22;;;;;;;1.00;0.50;;;;;;;22.10;34.42;97007.18;110705;1246;68727;-72
2022/10/03 10:44:56;;;;;;;1.90;0.80;;;;;;;21.18;35.63;97006.92;110577;1247;59690;-72
2022/10/03 10:47:51;;;;;;;1.20;0.40;;;;;;;20.47;36.54;97005.82;110380;1247;59742;-72
2022/10/03 10:50:24;;;;;;;1.50;0.60;;;;;;;20.47;36.90;97002.93;110430;1247;71560;-72
2022/10/03 10:53:37;;;;;;;0.80;0.60;;;;;;;20.10;36.91;97004.14;110298;1247;70133;-69
2022/10/03 10:56:26;;;;;;;2.80;0.50;;;;;;;19.48;38.10;97008.59;110002;1247;69438;-71
2022/10/03 10:59:31;;;;;;;1.30;0.60;;;;;;;19.76;38.22;97004.53;110259;1247;59736;-74
2022/10/03 11:02:32;;;;;;;1.50;0.70;;;;;;;20.20;37.61;96995.41;110243;1247;59718;-71
2022/10/03 11:05:19;;;;;;;0.80;0.70;;;;;;;20.50;37.56;96992.88;110345;1246;71007;-72
2022/10/03 11:08:17;;;;;;;1.20;0.50;;;;;;;20.24;37.04;96989.80;110256;1246;69296;-74
2022/10/03 11:11:13;;;;;;;1.10;0.50;;;;;;;20.68;36.19;96988.38;110197;1247;69942;-73
2022/10/03 11:13:59;;;;;;;0.80;0.50;;;;;;;21.07;36.30;96994.48;109836;1247;59768;-71
2022/10/03 11:16:48;;;;;;;1.50;0.60;;;;;;;21.64;36.18;96990.82;110252;1247;59666;-72
2022/10/03 11:19:58;;;;;;;1.60;0.60;;;;;;;21.82;34.95;96993.85;110271;1247;71783;-71
2022/10/03 11:22:47;;;;;;;1.40;0.70;;;;;;;21.66;35.47;96994.45;110410;1247;69218;-73
2022/10/03 11:25:49;;;;;;;0.60;0.60;;;;;;;21.10;36.15;97001.41;110322;1247;69863;-73
2022/10/03 11:29:08;;;;;;;1.20;0.80;;;;;;;19.29;37.78;97001.23;110173;1247;59694;-75
2022/10/03 11:32:16;;;;;;;2.20;0.80;;;;;;;18.76;38.74;96999.80;110446;1246;59682;-72
2022/10/03 11:35:02;;;;;;;1.50;0.90;;;;;;;18.27;39.95;97002.78;110018;1250;71845;-74
2022/10/03 11:37:40;;;;;;;0.90;0.60;;;;;;;17.98;40.83;96998.77;110363;1247;69333;-73
2022/10/03 11:40:27;;;;;;;0.80;0.50;;;;;;;18.59;41.11;96994.79;110223;1246;68608;-72
2022/10/03 11:42:57;;;;;;;2.20;0.80;;;;;;;18.60;40.54;96997.91;110323;1247;59706;-73
2022/10/03 11:45:33;;;;;;;2.80;0.90;;;;;;;18.43;41.24;97009.38;110470;1246;59746;-75
2022/10/03 11:48:30;;;;;;;1.90;0.80;;;;;;;17.55;44.11;97015.05;110736;1246;71054;-73
2022/10/03 11:51:10;;;;;;;0.90;0.70;;;;;;;16.09;48.34;97029.48;110483;1247;68623;-73
2022/10/03 11:53:40;;;;;;;2.10;0.70;;;;;;;14.42;54.20;97036.30;110489;1247;69262;-73
2022/10/03 11:56:13;;;;;;;1.60;0.70;;;;;;;13.27;58.81;97037.45;110439;1247;59745;-73
2022/10/03 11:59:11;;;;;;;1.30;0.90;;;;;;;12.59;59.99;97031.50;110432;1247;59735;-72
2022/10/03 12:02:11;;;;;;;1.40;0.70;;;;;;;12.13;62.41;97041.77;109918;1247;71723;-71
2022/10/03 12:05:17;;;;;;;1.40;0.90;;;;;;;11.98;64.35;97044.84;110212;1247;68753;-73
2022/10/03 12:11:00;;;;;;;2.40;1.10;;;;;;;11.50;68.66;97064.48;110244;1245;59697;-72
2022/10/03 12:13:30;;;;;;;2.60;1.10;;;;;;;11.36;70.01;97067.56;110334;1247;59679;-73
2022/10/03 12:15:59;;;;;;;2.60;1.20;;;;;;;11.33;68.43;97056.47;110377;1247;71445;-74
2022/10/03 12:18:39;;;;;;;1.40;0.80;;;;;;;11.40;69.03;97051.70;110358;1246;68462;-74
2022/10/03 12:21:12;;;;;;;0.70;0.70;;;;;;;11.58;68.76;97046.51;110351;1247;69301;-72
2022/10/03 12:24:10;;;;;;;0.90;0.80;;;;;;;11.91;67.74;97047.87;110291;1244;59743;-73
2022/10/03 12:26:42;;;;;;;1.30;1.10;;;;;;;12.14;68.02;97043.65;110235;1247;59659;-75
2022/10/03 12:29:13;;;;;;;0.80;0.80;;;;;;;12.28;69.10;97034.37;110506;1247;70416;-74
2022/10/03 12:31:52;;;;;;;2.30;1.10;;;;;;;12.48;67.68;97025.57;110355;1247;69433;-75
2022/10/03 12:34:57;;;;;;;2.50;1.00;;;;;;;12.60;67.46;97020.48;110231;1247;70019;-74
2022/10/03 12:37:34;;;;;;;1.30;0.90;;;;;;;12.66;67.00;97010.14;110275;1246;59767;-73
2022/10/03 12:40:14;;;;;;;1.80;1.00;;;;;;;12.90;67.08;97008.73;110401;1245;59681;-73
2022/10/03 12:42:55;;;;;;;2.50;0.80;;;;;;;13.27;65.68;97009.31;110225;1244;71447;-74
2022/10/03 12:45:35;;;;;;;2.80;1.20;;;;;;;13.68;64.13;97011.75;110409;1244;68891;-75
2022/10/03 12:48:17;;;;;;;2.00;1.00;;;;;;;14.92;61.50;97016.88;110575;1246;68798;-74
2022/10/03 12:51:25;;;;;;;1.00;0.80;;;;;;;16.44;58.03;97012.09;110857;1247;59766;-72
2022/10/03 12:54:14;;;;;;;0.80;0.70;;;;;;;17.68;52.58;97001.69;110356;1246;59727;-74
2022/10/03 12:57:06;;;;;;;1.30;0.80;;;;;;;18.63;47.82;96999.30;110623;1245;72166;-72
2022/10/03 12:59:41;;;;;;;1.60;0.70;;;;;;;19.84;46.23;97005.54;110534;1247;69417;-73
2022/10/03 13:02:28;;;;;;;1.70;0.80;;;;;;;20.83;43.96;97000.41;110242;1245;68683;-73
2022/10/03 13:05:18;;;;;;;1.40;0.70;;;;;;;21.15;43.35;96999.65;110389;1247;59682;-72
2022/10/03 13:08:02;;;;;;;1.40;0.60;;;;;;;20.67;43.47;96999.50;110488;1247;59698;-73
2022/10/03 13:10:35;;;;;;;1.70;0.90;;;;;;;19.91;45.35;96997.32;110363;1245;71585;-74
2022/10/03 13:13:12;;;;;;;2.00;0.70;;;;;;;18.87;47.73;96996.33;110531;1244;69372;-73
2022/10/03 13:16:21;;;;;;;0.80;0.70;;;;;;;17.99;49.94;96996.86;110375;1245;69341;-72
2022/10/03 13:19:12;;;;;;;2.40;1.00;;;;;;;17.24;51.21;96992.83;110510;1245;59735;-73
2022/10/03 13:21:52;;;;;;;1.40;0.90;;;;;;;16.77;52.02;96990.17;110370;1244;59715;-73